CYAY

Saint Anthony Airport

St. Anthony, Canada
METAR CYAY 190226Z AUTO 36008KT 9SM FEW030 03/01 A3013 RMK ICG PAST HR SLP207
Observed Flight Rules
Sep-19 @ 02:26 UTC (51 minutes ago) Visual Flight Rules
Wind Visibility Clouds
360° at 8 knots 9 miles
  • Few at 3,000' AGL
Temperatures Readings
Current 3°C / 37°F
Dewpoint 1°C / 34°F
Humidity 87%
Altimeter 30.13" Hg
Pressure 1020.7 hPa
Elevation 28
METAR CYAY 190226Z AUTO 36008KT 9SM FEW030 03/01 A3013 RMK ICG PAST HR SLP207
Observed Flight Rules
Sep-19 @ 02:26 UTC
(51 minutes ago)
VFR
Wind Visibility
360° at 8 knots 9 miles
Clouds
  • Few at 3,000' AGL
Temperature Dewpoint
3°C / 37°F 1°C / 34°F
Humidity Altimeter Pressure
87% 30.13" Hg 1020.7 hPa